This is the latest recevied weather packets stored in our database for station/object IU1FIL-23. If no packets are shown the sender has not sent any weather packets the latest 10 day(s).
| Time | Temp. | Humidity | Pressure | Rain* | Wind** | Luminosity | Snow |
|---|---|---|---|---|---|---|---|
| 1777531424 | 12.78° C | 88% | 1020.6 hPa | - | - | - | - |
| 1777530819 | 12.78° C | 87% | 1020.5 hPa | - | - | - | - |
| 1777530215 | 12.78° C | 86% | 1020.5 hPa | - | - | - | - |
| 1777529611 | 12.22° C | 87% | 1020.4 hPa | - | - | - | - |
| 1777529007 | 12.22° C | 86% | 1020.4 hPa | - | - | - | - |
| 1777528403 | 11.67° C | 86% | 1020.4 hPa | - | - | - | - |
| 1777527799 | 11.67° C | 86% | 1020.5 hPa | - | - | - | - |
| 1777527195 | 11.67° C | 87% | 1020.2 hPa | - | - | - | - |
| 1777526591 | 11.11° C | 89% | 1020.1 hPa | - | - | - | - |
| 1777525986 | 11.11° C | 91% | 1020 hPa | - | - | - | - |
| 1777525382 | 11.11° C | 91% | 1019.9 hPa | - | - | - | - |
| 1777524778 | 11.11° C | 91% | 1019.9 hPa | - | - | - | - |
| 1777524168 | 11.11° C | 93% | 1019.8 hPa | - | - | - | - |
| 1777523564 | 11.11° C | 90% | 1019.7 hPa | - | - | - | - |
| 1777522960 | 11.11° C | 87% | 1019.6 hPa | - | - | - | - |
| 1777522356 | 11.11° C | 85% | 1019.4 hPa | - | - | - | - |
| 1777521748 | 11.67° C | 81% | 1019.4 hPa | - | - | - | - |
| 1777521144 | 11.67° C | 79% | 1019.4 hPa | - | - | - | - |
| 1777520540 | 11.67° C | 80% | 1019.3 hPa | - | - | - | - |
| 1777519936 | 11.67° C | 79% | 1019.3 hPa | - | - | - | - |
| 1777519332 | 11.67° C | 78% | 1019.3 hPa | - | - | - | - |
| 1777518728 | 11.67° C | 75% | 1019.3 hPa | - | - | - | - |
| 1777518124 | 11.67° C | 74% | 1019.5 hPa | - | - | - | - |
| 1777517519 | 12.22° C | 72% | 1019.5 hPa | - | - | - | - |
| 1777516915 | 12.22° C | 70% | 1019.3 hPa | - | - | - | - |
* Rain since midnight (hover to see other rain measurements)
** Current wind speed in m/s (hover to see current wind gust speed)